sensor_id;sensor_type;location;lat;lon;timestamp;temperature;humidity
21807;DHT22;11065;50.786;7.840;2023-12-20T00:01:20;9.80;61.90
21807;DHT22;11065;50.786;7.840;2023-12-20T00:03:50;9.80;62.10
21807;DHT22;11065;50.786;7.840;2023-12-20T00:06:18;9.80;61.90
21807;DHT22;11065;50.786;7.840;2023-12-20T00:08:46;9.90;61.80
21807;DHT22;11065;50.786;7.840;2023-12-20T00:11:14;9.90;61.90
21807;DHT22;11065;50.786;7.840;2023-12-20T00:13:42;9.90;61.90
21807;DHT22;11065;50.786;7.840;2023-12-20T00:16:11;9.90;61.80
21807;DHT22;11065;50.786;7.840;2023-12-20T00:18:39;9.90;62.10
21807;DHT22;11065;50.786;7.840;2023-12-20T00:21:09;9.90;61.90
21807;DHT22;11065;50.786;7.840;2023-12-20T00:23:37;9.90;62.10
21807;DHT22;11065;50.786;7.840;2023-12-20T00:26:05;9.90;62.00
21807;DHT22;11065;50.786;7.840;2023-12-20T00:28:33;9.90;62.00
21807;DHT22;11065;50.786;7.840;2023-12-20T00:31:01;10.00;62.40
21807;DHT22;11065;50.786;7.840;2023-12-20T00:33:29;10.00;62.10
21807;DHT22;11065;50.786;7.840;2023-12-20T00:35:57;10.00;62.00
21807;DHT22;11065;50.786;7.840;2023-12-20T00:38:26;10.00;61.90
21807;DHT22;11065;50.786;7.840;2023-12-20T00:40:54;10.00;61.90
21807;DHT22;11065;50.786;7.840;2023-12-20T00:43:22;10.00;61.90
21807;DHT22;11065;50.786;7.840;2023-12-20T00:45:51;10.10;61.90
21807;DHT22;11065;50.786;7.840;2023-12-20T00:48:18;10.10;61.90
21807;DHT22;11065;50.786;7.840;2023-12-20T00:50:47;10.10;61.80
21807;DHT22;11065;50.786;7.840;2023-12-20T00:53:15;10.10;61.80
21807;DHT22;11065;50.786;7.840;2023-12-20T00:55:44;10.10;62.00
21807;DHT22;11065;50.786;7.840;2023-12-20T00:58:13;10.10;62.10
21807;DHT22;11065;50.786;7.840;2023-12-20T01:00:42;10.10;61.90
21807;DHT22;11065;50.786;7.840;2023-12-20T01:03:10;10.10;61.80
21807;DHT22;11065;50.786;7.840;2023-12-20T01:05:38;10.10;61.70
21807;DHT22;11065;50.786;7.840;2023-12-20T01:08:06;10.10;61.70
21807;DHT22;11065;50.786;7.840;2023-12-20T01:10:34;10.10;61.90
21807;DHT22;11065;50.786;7.840;2023-12-20T01:13:04;10.10;62.00
21807;DHT22;11065;50.786;7.840;2023-12-20T01:15:32;10.10;61.90
21807;DHT22;11065;50.786;7.840;2023-12-20T01:17:59;10.10;61.90
21807;DHT22;11065;50.786;7.840;2023-12-20T01:20:28;10.20;62.00
21807;DHT22;11065;50.786;7.840;2023-12-20T01:22:55;10.20;62.00
21807;DHT22;11065;50.786;7.840;2023-12-20T01:25:23;10.20;62.10
21807;DHT22;11065;50.786;7.840;2023-12-20T01:27:51;10.20;61.90
21807;DHT22;11065;50.786;7.840;2023-12-20T01:30:21;10.20;62.00
21807;DHT22;11065;50.786;7.840;2023-12-20T01:32:49;10.20;61.90
21807;DHT22;11065;50.786;7.840;2023-12-20T01:35:16;10.20;61.90
21807;DHT22;11065;50.786;7.840;2023-12-20T01:37:45;10.20;61.90
21807;DHT22;11065;50.786;7.840;2023-12-20T01:40:13;10.20;61.90
21807;DHT22;11065;50.786;7.840;2023-12-20T01:42:41;10.20;62.00
21807;DHT22;11065;50.786;7.840;2023-12-20T01:45:09;10.20;62.10
21807;DHT22;11065;50.786;7.840;2023-12-20T01:47:39;10.30;62.10
21807;DHT22;11065;50.786;7.840;2023-12-20T01:50:07;10.30;62.10
21807;DHT22;11065;50.786;7.840;2023-12-20T01:52:36;10.30;62.10
21807;DHT22;11065;50.786;7.840;2023-12-20T01:55:06;10.30;62.20
21807;DHT22;11065;50.786;7.840;2023-12-20T01:57:41;10.30;62.40
21807;DHT22;11065;50.786;7.840;2023-12-20T02:00:11;10.30;62.20
21807;DHT22;11065;50.786;7.840;2023-12-20T02:02:43;10.30;62.20
21807;DHT22;11065;50.786;7.840;2023-12-20T02:05:13;10.30;62.00
21807;DHT22;11065;50.786;7.840;2023-12-20T02:07:41;10.30;61.40
21807;DHT22;11065;50.786;7.840;2023-12-20T02:10:10;10.30;61.40
21807;DHT22;11065;50.786;7.840;2023-12-20T02:12:38;10.30;61.40
21807;DHT22;11065;50.786;7.840;2023-12-20T02:15:07;10.30;61.20
21807;DHT22;11065;50.786;7.840;2023-12-20T02:17:35;10.30;61.10
21807;DHT22;11065;50.786;7.840;2023-12-20T02:20:06;10.30;61.00
21807;DHT22;11065;50.786;7.840;2023-12-20T02:22:36;10.30;61.00
21807;DHT22;11065;50.786;7.840;2023-12-20T02:25:04;10.30;60.90
21807;DHT22;11065;50.786;7.840;2023-12-20T02:27:32;10.30;60.70
21807;DHT22;11065;50.786;7.840;2023-12-20T02:30:00;10.30;60.60
21807;DHT22;11065;50.786;7.840;2023-12-20T02:32:29;10.20;60.40
21807;DHT22;11065;50.786;7.840;2023-12-20T02:34:58;10.20;60.30
21807;DHT22;11065;50.786;7.840;2023-12-20T02:37:26;10.20;60.20
21807;DHT22;11065;50.786;7.840;2023-12-20T02:39:55;10.20;60.20
21807;DHT22;11065;50.786;7.840;2023-12-20T02:42:23;10.10;59.90
21807;DHT22;11065;50.786;7.840;2023-12-20T02:44:51;10.10;59.80
21807;DHT22;11065;50.786;7.840;2023-12-20T02:47:20;10.10;59.90
21807;DHT22;11065;50.786;7.840;2023-12-20T02:49:49;10.10;60.00
21807;DHT22;11065;50.786;7.840;2023-12-20T02:52:17;10.10;60.20
21807;DHT22;11065;50.786;7.840;2023-12-20T02:54:46;10.00;60.00
21807;DHT22;11065;50.786;7.840;2023-12-20T02:57:16;10.00;60.00
21807;DHT22;11065;50.786;7.840;2023-12-20T02:59:44;10.00;59.90
21807;DHT22;11065;50.786;7.840;2023-12-20T03:02:12;10.00;60.00
21807;DHT22;11065;50.786;7.840;2023-12-20T03:04:40;10.00;60.10
21807;DHT22;11065;50.786;7.840;2023-12-20T03:07:08;10.00;60.20
21807;DHT22;11065;50.786;7.840;2023-12-20T03:09:38;10.00;60.30
21807;DHT22;11065;50.786;7.840;2023-12-20T03:12:27;10.00;60.30
21807;DHT22;11065;50.786;7.840;2023-12-20T03:14:55;10.00;60.40
21807;DHT22;11065;50.786;7.840;2023-12-20T03:17:23;10.00;60.40
21807;DHT22;11065;50.786;7.840;2023-12-20T03:19:51;10.00;60.40
21807;DHT22;11065;50.786;7.840;2023-12-20T03:22:19;9.90;60.30
21807;DHT22;11065;50.786;7.840;2023-12-20T03:24:48;10.00;60.20
21807;DHT22;11065;50.786;7.840;2023-12-20T03:27:16;10.00;60.20
21807;DHT22;11065;50.786;7.840;2023-12-20T03:29:46;10.00;60.00
21807;DHT22;11065;50.786;7.840;2023-12-20T03:32:14;10.00;59.60
21807;DHT22;11065;50.786;7.840;2023-12-20T03:34:42;9.90;59.60
21807;DHT22;11065;50.786;7.840;2023-12-20T03:37:10;10.00;59.70
21807;DHT22;11065;50.786;7.840;2023-12-20T03:39:38;10.00;59.70
21807;DHT22;11065;50.786;7.840;2023-12-20T03:42:06;9.90;59.30
21807;DHT22;11065;50.786;7.840;2023-12-20T03:44:34;9.90;59.40
21807;DHT22;11065;50.786;7.840;2023-12-20T03:47:03;9.90;59.30
21807;DHT22;11065;50.786;7.840;2023-12-20T03:49:31;9.90;59.10
21807;DHT22;11065;50.786;7.840;2023-12-20T03:51:59;9.80;58.90
21807;DHT22;11065;50.786;7.840;2023-12-20T03:54:28;9.70;58.70
21807;DHT22;11065;50.786;7.840;2023-12-20T03:56:56;9.70;58.80
21807;DHT22;11065;50.786;7.840;2023-12-20T03:59:23;9.60;58.80
21807;DHT22;11065;50.786;7.840;2023-12-20T04:01:51;9.60;58.80
21807;DHT22;11065;50.786;7.840;2023-12-20T04:04:21;9.60;58.90
21807;DHT22;11065;50.786;7.840;2023-12-20T04:06:49;9.50;58.90
21807;DHT22;11065;50.786;7.840;2023-12-20T04:09:17;9.50;59.00
21807;DHT22;11065;50.786;7.840;2023-12-20T04:11:45;9.50;59.10
21807;DHT22;11065;50.786;7.840;2023-12-20T04:14:13;9.50;59.20
21807;DHT22;11065;50.786;7.840;2023-12-20T04:16:41;9.50;59.20
21807;DHT22;11065;50.786;7.840;2023-12-20T04:19:13;9.50;59.20
21807;DHT22;11065;50.786;7.840;2023-12-20T04:21:42;9.50;59.30
21807;DHT22;11065;50.786;7.840;2023-12-20T04:24:10;9.50;59.30
21807;DHT22;11065;50.786;7.840;2023-12-20T04:26:38;9.50;59.30
21807;DHT22;11065;50.786;7.840;2023-12-20T04:29:06;9.50;59.40
21807;DHT22;11065;50.786;7.840;2023-12-20T04:31:34;9.50;59.40
21807;DHT22;11065;50.786;7.840;2023-12-20T04:34:02;9.50;59.40
21807;DHT22;11065;50.786;7.840;2023-12-20T04:36:30;9.50;59.40
21807;DHT22;11065;50.786;7.840;2023-12-20T04:38:59;9.50;59.40
21807;DHT22;11065;50.786;7.840;2023-12-20T04:41:27;9.50;59.40
21807;DHT22;11065;50.786;7.840;2023-12-20T04:43:55;9.50;59.40
21807;DHT22;11065;50.786;7.840;2023-12-20T04:46:23;9.50;59.40
21807;DHT22;11065;50.786;7.840;2023-12-20T04:48:51;9.50;59.40
21807;DHT22;11065;50.786;7.840;2023-12-20T04:51:19;9.50;59.50
21807;DHT22;11065;50.786;7.840;2023-12-20T04:53:47;9.50;59.60
21807;DHT22;11065;50.786;7.840;2023-12-20T04:56:16;9.60;59.50
21807;DHT22;11065;50.786;7.840;2023-12-20T04:58:44;9.50;59.40
21807;DHT22;11065;50.786;7.840;2023-12-20T05:01:13;9.50;59.40
21807;DHT22;11065;50.786;7.840;2023-12-20T05:03:41;9.50;59.40
21807;DHT22;11065;50.786;7.840;2023-12-20T05:06:09;9.40;59.30
21807;DHT22;11065;50.786;7.840;2023-12-20T05:08:37;9.40;59.40
21807;DHT22;11065;50.786;7.840;2023-12-20T05:11:05;9.40;59.40
21807;DHT22;11065;50.786;7.840;2023-12-20T05:13:34;9.50;59.40
21807;DHT22;11065;50.786;7.840;2023-12-20T05:16:13;9.40;59.30
21807;DHT22;11065;50.786;7.840;2023-12-20T05:18:47;9.40;59.40
21807;DHT22;11065;50.786;7.840;2023-12-20T05:21:15;9.40;59.40
21807;DHT22;11065;50.786;7.840;2023-12-20T05:23:43;9.40;59.40
21807;DHT22;11065;50.786;7.840;2023-12-20T05:26:11;9.40;59.40
21807;DHT22;11065;50.786;7.840;2023-12-20T05:28:40;9.40;59.40
21807;DHT22;11065;50.786;7.840;2023-12-20T05:31:08;9.40;59.50
21807;DHT22;11065;50.786;7.840;2023-12-20T05:33:36;9.40;59.50
21807;DHT22;11065;50.786;7.840;2023-12-20T05:36:05;9.40;59.50
21807;DHT22;11065;50.786;7.840;2023-12-20T05:38:37;9.40;59.50
21807;DHT22;11065;50.786;7.840;2023-12-20T05:41:05;9.40;59.50
21807;DHT22;11065;50.786;7.840;2023-12-20T05:43:33;9.40;59.50
21807;DHT22;11065;50.786;7.840;2023-12-20T05:46:03;9.40;59.50
21807;DHT22;11065;50.786;7.840;2023-12-20T05:48:31;9.40;59.50
21807;DHT22;11065;50.786;7.840;2023-12-20T05:50:59;9.50;59.50
21807;DHT22;11065;50.786;7.840;2023-12-20T05:53:27;9.40;59.50
21807;DHT22;11065;50.786;7.840;2023-12-20T05:55:54;9.40;59.40
21807;DHT22;11065;50.786;7.840;2023-12-20T05:58:22;9.40;59.40
21807;DHT22;11065;50.786;7.840;2023-12-20T06:00:50;9.40;59.40
21807;DHT22;11065;50.786;7.840;2023-12-20T06:03:20;9.40;59.40
21807;DHT22;11065;50.786;7.840;2023-12-20T06:05:48;9.40;59.40
21807;DHT22;11065;50.786;7.840;2023-12-20T06:08:17;9.40;59.40
21807;DHT22;11065;50.786;7.840;2023-12-20T06:10:45;9.40;59.40
21807;DHT22;11065;50.786;7.840;2023-12-20T06:13:13;9.40;59.40
21807;DHT22;11065;50.786;7.840;2023-12-20T06:15:42;9.40;59.40
21807;DHT22;11065;50.786;7.840;2023-12-20T06:18:10;9.40;59.40
21807;DHT22;11065;50.786;7.840;2023-12-20T06:20:39;9.40;59.40
21807;DHT22;11065;50.786;7.840;2023-12-20T06:23:07;9.40;59.40
21807;DHT22;11065;50.786;7.840;2023-12-20T06:25:35;9.40;59.40
21807;DHT22;11065;50.786;7.840;2023-12-20T06:28:04;9.40;59.40
21807;DHT22;11065;50.786;7.840;2023-12-20T06:30:32;9.40;59.40
21807;DHT22;11065;50.786;7.840;2023-12-20T06:33:00;9.40;59.40
21807;DHT22;11065;50.786;7.840;2023-12-20T06:35:29;9.40;59.40
21807;DHT22;11065;50.786;7.840;2023-12-20T06:38:03;9.40;59.40
21807;DHT22;11065;50.786;7.840;2023-12-20T06:40:31;9.40;59.40
21807;DHT22;11065;50.786;7.840;2023-12-20T06:42:59;9.40;59.40
21807;DHT22;11065;50.786;7.840;2023-12-20T06:45:38;9.40;59.20
21807;DHT22;11065;50.786;7.840;2023-12-20T06:48:06;9.40;59.30
21807;DHT22;11065;50.786;7.840;2023-12-20T06:50:35;9.40;59.30
21807;DHT22;11065;50.786;7.840;2023-12-20T06:53:08;9.40;59.30
21807;DHT22;11065;50.786;7.840;2023-12-20T06:55:36;9.40;59.30
21807;DHT22;11065;50.786;7.840;2023-12-20T06:58:04;9.40;59.30
21807;DHT22;11065;50.786;7.840;2023-12-20T07:00:33;9.40;59.30
21807;DHT22;11065;50.786;7.840;2023-12-20T07:03:01;9.40;59.20
21807;DHT22;11065;50.786;7.840;2023-12-20T07:05:29;9.40;59.30
21807;DHT22;11065;50.786;7.840;2023-12-20T07:07:57;9.40;59.30
21807;DHT22;11065;50.786;7.840;2023-12-20T07:10:27;9.40;59.40
21807;DHT22;11065;50.786;7.840;2023-12-20T07:12:54;9.40;59.40
21807;DHT22;11065;50.786;7.840;2023-12-20T07:15:22;9.40;59.40
21807;DHT22;11065;50.786;7.840;2023-12-20T07:17:51;9.40;59.30
21807;DHT22;11065;50.786;7.840;2023-12-20T07:20:19;9.40;59.30
21807;DHT22;11065;50.786;7.840;2023-12-20T07:22:47;9.40;59.20
21807;DHT22;11065;50.786;7.840;2023-12-20T07:25:15;9.40;59.20
21807;DHT22;11065;50.786;7.840;2023-12-20T07:27:45;9.40;59.20
21807;DHT22;11065;50.786;7.840;2023-12-20T07:30:14;9.40;59.20
21807;DHT22;11065;50.786;7.840;2023-12-20T07:32:42;9.40;59.20
21807;DHT22;11065;50.786;7.840;2023-12-20T07:35:10;9.40;59.20
21807;DHT22;11065;50.786;7.840;2023-12-20T07:37:39;9.40;59.20
21807;DHT22;11065;50.786;7.840;2023-12-20T07:40:08;9.40;59.20
21807;DHT22;11065;50.786;7.840;2023-12-20T07:42:36;9.40;59.20
21807;DHT22;11065;50.786;7.840;2023-12-20T07:45:06;9.40;59.20
21807;DHT22;11065;50.786;7.840;2023-12-20T07:47:34;9.40;59.30
21807;DHT22;11065;50.786;7.840;2023-12-20T07:50:02;9.40;59.30
21807;DHT22;11065;50.786;7.840;2023-12-20T07:52:31;9.40;59.30
21807;DHT22;11065;50.786;7.840;2023-12-20T07:54:59;9.40;59.30
21807;DHT22;11065;50.786;7.840;2023-12-20T07:57:29;9.40;59.40
21807;DHT22;11065;50.786;7.840;2023-12-20T07:59:57;9.40;59.40
21807;DHT22;11065;50.786;7.840;2023-12-20T08:02:26;9.40;59.40
21807;DHT22;11065;50.786;7.840;2023-12-20T08:04:54;9.40;59.40
21807;DHT22;11065;50.786;7.840;2023-12-20T08:07:22;9.40;59.60
21807;DHT22;11065;50.786;7.840;2023-12-20T08:09:50;9.40;59.50
21807;DHT22;11065;50.786;7.840;2023-12-20T08:12:20;9.40;59.40
21807;DHT22;11065;50.786;7.840;2023-12-20T08:14:48;9.40;59.40
21807;DHT22;11065;50.786;7.840;2023-12-20T08:17:16;9.50;59.30
21807;DHT22;11065;50.786;7.840;2023-12-20T08:19:48;9.40;59.30
21807;DHT22;11065;50.786;7.840;2023-12-20T08:22:16;9.40;59.30
21807;DHT22;11065;50.786;7.840;2023-12-20T08:24:44;9.50;59.20
21807;DHT22;11065;50.786;7.840;2023-12-20T08:27:12;9.50;59.20
21807;DHT22;11065;50.786;7.840;2023-12-20T08:29:41;9.40;59.20
21807;DHT22;11065;50.786;7.840;2023-12-20T08:32:11;9.40;59.30
21807;DHT22;11065;50.786;7.840;2023-12-20T08:34:39;9.50;59.40
21807;DHT22;11065;50.786;7.840;2023-12-20T08:37:08;9.50;59.30
21807;DHT22;11065;50.786;7.840;2023-12-20T08:39:36;9.50;59.20
21807;DHT22;11065;50.786;7.840;2023-12-20T08:42:07;9.50;59.10
21807;DHT22;11065;50.786;7.840;2023-12-20T08:44:34;9.50;59.00
21807;DHT22;11065;50.786;7.840;2023-12-20T08:47:03;9.50;59.00
21807;DHT22;11065;50.786;7.840;2023-12-20T08:49:31;9.50;58.90
21807;DHT22;11065;50.786;7.840;2023-12-20T08:51:59;9.50;58.90
21807;DHT22;11065;50.786;7.840;2023-12-20T08:54:29;9.50;58.80
21807;DHT22;11065;50.786;7.840;2023-12-20T08:56:57;9.50;58.80
21807;DHT22;11065;50.786;7.840;2023-12-20T08:59:25;9.50;58.90
21807;DHT22;11065;50.786;7.840;2023-12-20T09:01:53;9.50;58.40
21807;DHT22;11065;50.786;7.840;2023-12-20T09:04:23;9.50;58.60
21807;DHT22;11065;50.786;7.840;2023-12-20T09:06:51;9.50;58.70
21807;DHT22;11065;50.786;7.840;2023-12-20T09:09:19;9.50;58.60
21807;DHT22;11065;50.786;7.840;2023-12-20T09:11:48;9.50;58.50
21807;DHT22;11065;50.786;7.840;2023-12-20T09:14:17;9.50;58.60
21807;DHT22;11065;50.786;7.840;2023-12-20T09:16:45;9.50;58.70
21807;DHT22;11065;50.786;7.840;2023-12-20T09:19:13;9.50;58.70
21807;DHT22;11065;50.786;7.840;2023-12-20T09:21:41;9.60;58.80
21807;DHT22;11065;50.786;7.840;2023-12-20T09:24:09;9.50;58.70
21807;DHT22;11065;50.786;7.840;2023-12-20T09:26:37;9.50;58.90
21807;DHT22;11065;50.786;7.840;2023-12-20T09:29:07;9.50;58.70
21807;DHT22;11065;50.786;7.840;2023-12-20T09:31:37;9.50;58.60
21807;DHT22;11065;50.786;7.840;2023-12-20T09:34:06;9.50;58.60
21807;DHT22;11065;50.786;7.840;2023-12-20T09:36:34;9.50;58.50
21807;DHT22;11065;50.786;7.840;2023-12-20T09:39:03;9.50;58.40
21807;DHT22;11065;50.786;7.840;2023-12-20T09:41:32;9.50;58.40
21807;DHT22;11065;50.786;7.840;2023-12-20T09:44:03;9.60;58.50
21807;DHT22;11065;50.786;7.840;2023-12-20T09:46:32;9.60;58.50
21807;DHT22;11065;50.786;7.840;2023-12-20T09:49:02;9.60;58.40
21807;DHT22;11065;50.786;7.840;2023-12-20T09:51:31;9.60;58.40
21807;DHT22;11065;50.786;7.840;2023-12-20T09:54:00;9.60;58.40
21807;DHT22;11065;50.786;7.840;2023-12-20T09:56:31;9.60;58.40
21807;DHT22;11065;50.786;7.840;2023-12-20T09:58:59;9.60;58.40
21807;DHT22;11065;50.786;7.840;2023-12-20T10:01:28;9.60;58.40
21807;DHT22;11065;50.786;7.840;2023-12-20T10:03:58;9.60;58.80
21807;DHT22;11065;50.786;7.840;2023-12-20T10:06:30;9.60;58.20
21807;DHT22;11065;50.786;7.840;2023-12-20T10:08:58;9.70;58.30
21807;DHT22;11065;50.786;7.840;2023-12-20T10:11:26;9.60;58.20
21807;DHT22;11065;50.786;7.840;2023-12-20T10:13:59;9.70;58.20
21807;DHT22;11065;50.786;7.840;2023-12-20T10:16:27;9.70;58.20
21807;DHT22;11065;50.786;7.840;2023-12-20T10:18:57;9.70;58.20
21807;DHT22;11065;50.786;7.840;2023-12-20T10:21:26;9.70;58.20
21807;DHT22;11065;50.786;7.840;2023-12-20T10:23:55;9.70;58.20
21807;DHT22;11065;50.786;7.840;2023-12-20T10:26:24;9.70;58.10
21807;DHT22;11065;50.786;7.840;2023-12-20T10:28:53;9.70;58.10
21807;DHT22;11065;50.786;7.840;2023-12-20T10:31:29;9.70;58.10
21807;DHT22;11065;50.786;7.840;2023-12-20T10:34:00;9.70;58.00
21807;DHT22;11065;50.786;7.840;2023-12-20T10:36:29;9.70;58.00
21807;DHT22;11065;50.786;7.840;2023-12-20T10:38:58;9.70;57.80
21807;DHT22;11065;50.786;7.840;2023-12-20T10:41:29;9.70;58.00
21807;DHT22;11065;50.786;7.840;2023-12-20T10:43:59;9.70;58.00
21807;DHT22;11065;50.786;7.840;2023-12-20T10:46:27;9.70;58.00
21807;DHT22;11065;50.786;7.840;2023-12-20T10:48:56;9.70;58.00
21807;DHT22;11065;50.786;7.840;2023-12-20T10:51:26;9.70;58.00
21807;DHT22;11065;50.786;7.840;2023-12-20T10:53:56;9.70;58.00
21807;DHT22;11065;50.786;7.840;2023-12-20T10:56:24;9.70;58.00
21807;DHT22;11065;50.786;7.840;2023-12-20T10:58:54;9.70;57.90
21807;DHT22;11065;50.786;7.840;2023-12-20T11:01:23;9.80;58.00
21807;DHT22;11065;50.786;7.840;2023-12-20T11:03:52;9.70;57.90
21807;DHT22;11065;50.786;7.840;2023-12-20T11:06:29;9.70;57.90
21807;DHT22;11065;50.786;7.840;2023-12-20T11:09:08;9.70;57.90
21807;DHT22;11065;50.786;7.840;2023-12-20T11:11:47;9.70;57.90
21807;DHT22;11065;50.786;7.840;2023-12-20T11:14:23;9.70;57.90
21807;DHT22;11065;50.786;7.840;2023-12-20T11:17:05;9.80;57.90
21807;DHT22;11065;50.786;7.840;2023-12-20T11:19:36;9.80;57.80
21807;DHT22;11065;50.786;7.840;2023-12-20T11:22:06;9.80;57.90
21807;DHT22;11065;50.786;7.840;2023-12-20T11:24:34;9.80;57.80
21807;DHT22;11065;50.786;7.840;2023-12-20T11:27:04;9.80;57.80
21807;DHT22;11065;50.786;7.840;2023-12-20T11:29:33;9.80;57.90
21807;DHT22;11065;50.786;7.840;2023-12-20T11:32:04;9.70;57.90
21807;DHT22;11065;50.786;7.840;2023-12-20T11:34:53;9.70;57.80
21807;DHT22;11065;50.786;7.840;2023-12-20T11:37:28;9.70;57.90
21807;DHT22;11065;50.786;7.840;2023-12-20T11:40:00;9.70;57.90
21807;DHT22;11065;50.786;7.840;2023-12-20T11:42:33;9.80;58.00
21807;DHT22;11065;50.786;7.840;2023-12-20T11:45:02;9.80;58.00
21807;DHT22;11065;50.786;7.840;2023-12-20T11:47:31;9.80;58.00
21807;DHT22;11065;50.786;7.840;2023-12-20T11:49:59;9.80;58.10
21807;DHT22;11065;50.786;7.840;2023-12-20T11:52:31;9.80;58.10
21807;DHT22;11065;50.786;7.840;2023-12-20T11:54:59;9.80;58.10
21807;DHT22;11065;50.786;7.840;2023-12-20T11:57:27;9.80;58.10
21807;DHT22;11065;50.786;7.840;2023-12-20T11:59:55;9.80;58.10
21807;DHT22;11065;50.786;7.840;2023-12-20T12:02:24;9.80;58.10
21807;DHT22;11065;50.786;7.840;2023-12-20T12:04:52;9.80;58.10
21807;DHT22;11065;50.786;7.840;2023-12-20T12:07:21;9.80;58.10
21807;DHT22;11065;50.786;7.840;2023-12-20T12:09:50;9.80;58.10
21807;DHT22;11065;50.786;7.840;2023-12-20T12:12:19;9.80;58.00
21807;DHT22;11065;50.786;7.840;2023-12-20T12:14:48;9.80;58.00
21807;DHT22;11065;50.786;7.840;2023-12-20T12:17:16;9.80;58.10
21807;DHT22;11065;50.786;7.840;2023-12-20T12:19:46;9.90;58.10
21807;DHT22;11065;50.786;7.840;2023-12-20T12:22:14;9.80;58.10
21807;DHT22;11065;50.786;7.840;2023-12-20T12:24:44;9.80;58.10
21807;DHT22;11065;50.786;7.840;2023-12-20T12:27:14;9.80;57.90
21807;DHT22;11065;50.786;7.840;2023-12-20T12:30:00;9.80;58.00
21807;DHT22;11065;50.786;7.840;2023-12-20T12:32:28;9.80;58.00
21807;DHT22;11065;50.786;7.840;2023-12-20T12:34:56;9.80;58.10
21807;DHT22;11065;50.786;7.840;2023-12-20T12:37:24;9.80;58.10
21807;DHT22;11065;50.786;7.840;2023-12-20T12:39:53;9.80;58.00
21807;DHT22;11065;50.786;7.840;2023-12-20T12:42:23;9.80;58.10
21807;DHT22;11065;50.786;7.840;2023-12-20T12:44:55;9.80;58.10
21807;DHT22;11065;50.786;7.840;2023-12-20T12:47:23;9.80;58.20
21807;DHT22;11065;50.786;7.840;2023-12-20T12:49:52;9.90;58.00
21807;DHT22;11065;50.786;7.840;2023-12-20T12:52:21;9.90;58.20
21807;DHT22;11065;50.786;7.840;2023-12-20T12:54:49;9.90;58.20
21807;DHT22;11065;50.786;7.840;2023-12-20T12:57:17;9.90;58.30
21807;DHT22;11065;50.786;7.840;2023-12-20T12:59:47;9.90;58.30
21807;DHT22;11065;50.786;7.840;2023-12-20T13:02:15;10.00;58.30
21807;DHT22;11065;50.786;7.840;2023-12-20T13:04:44;10.00;58.30
21807;DHT22;11065;50.786;7.840;2023-12-20T13:07:13;10.00;58.40
21807;DHT22;11065;50.786;7.840;2023-12-20T13:09:41;10.00;58.30
21807;DHT22;11065;50.786;7.840;2023-12-20T13:12:09;10.00;58.20
21807;DHT22;11065;50.786;7.840;2023-12-20T13:14:37;10.00;58.20
21807;DHT22;11065;50.786;7.840;2023-12-20T13:17:06;10.00;58.10
21807;DHT22;11065;50.786;7.840;2023-12-20T13:19:34;10.00;58.10
21807;DHT22;11065;50.786;7.840;2023-12-20T13:22:03;10.10;58.20
21807;DHT22;11065;50.786;7.840;2023-12-20T13:24:31;10.00;58.10
21807;DHT22;11065;50.786;7.840;2023-12-20T13:26:59;10.00;58.20
21807;DHT22;11065;50.786;7.840;2023-12-20T13:29:27;10.10;58.30
21807;DHT22;11065;50.786;7.840;2023-12-20T13:31:55;10.00;58.20
21807;DHT22;11065;50.786;7.840;2023-12-20T13:34:25;9.90;58.20
21807;DHT22;11065;50.786;7.840;2023-12-20T13:36:54;9.90;58.30
21807;DHT22;11065;50.786;7.840;2023-12-20T13:39:23;9.90;58.30
21807;DHT22;11065;50.786;7.840;2023-12-20T13:41:51;9.90;58.30
21807;DHT22;11065;50.786;7.840;2023-12-20T13:44:19;9.90;58.50
21807;DHT22;11065;50.786;7.840;2023-12-20T13:46:47;10.00;58.60
21807;DHT22;11065;50.786;7.840;2023-12-20T13:49:16;9.90;58.70
21807;DHT22;11065;50.786;7.840;2023-12-20T13:51:46;9.90;58.80
21807;DHT22;11065;50.786;7.840;2023-12-20T13:54:14;9.80;58.80
21807;DHT22;11065;50.786;7.840;2023-12-20T13:56:43;9.90;58.90
21807;DHT22;11065;50.786;7.840;2023-12-20T13:59:31;9.80;58.90
21807;DHT22;11065;50.786;7.840;2023-12-20T14:01:59;9.90;59.00
21807;DHT22;11065;50.786;7.840;2023-12-20T14:04:28;9.90;59.10
21807;DHT22;11065;50.786;7.840;2023-12-20T14:07:10;9.90;59.20
21807;DHT22;11065;50.786;7.840;2023-12-20T14:09:39;9.90;59.10
21807;DHT22;11065;50.786;7.840;2023-12-20T14:12:12;9.90;59.00
21807;DHT22;11065;50.786;7.840;2023-12-20T14:14:40;9.90;59.00
21807;DHT22;11065;50.786;7.840;2023-12-20T14:17:08;9.90;58.90
21807;DHT22;11065;50.786;7.840;2023-12-20T14:19:36;9.90;58.90
21807;DHT22;11065;50.786;7.840;2023-12-20T14:22:04;9.90;58.90
21807;DHT22;11065;50.786;7.840;2023-12-20T14:24:35;9.90;58.80
21807;DHT22;11065;50.786;7.840;2023-12-20T14:27:03;10.00;58.80
21807;DHT22;11065;50.786;7.840;2023-12-20T14:29:31;9.90;58.80
21807;DHT22;11065;50.786;7.840;2023-12-20T14:31:59;9.90;58.80
21807;DHT22;11065;50.786;7.840;2023-12-20T14:34:29;9.90;58.80
21807;DHT22;11065;50.786;7.840;2023-12-20T14:36:57;9.90;58.90
21807;DHT22;11065;50.786;7.840;2023-12-20T14:39:25;9.80;58.80
21807;DHT22;11065;50.786;7.840;2023-12-20T14:41:55;9.80;58.80
21807;DHT22;11065;50.786;7.840;2023-12-20T14:44:23;9.80;58.80
21807;DHT22;11065;50.786;7.840;2023-12-20T14:46:51;9.80;58.80
21807;DHT22;11065;50.786;7.840;2023-12-20T14:49:19;9.80;58.80
21807;DHT22;11065;50.786;7.840;2023-12-20T14:51:47;9.90;58.90
21807;DHT22;11065;50.786;7.840;2023-12-20T14:54:15;9.80;58.90
21807;DHT22;11065;50.786;7.840;2023-12-20T14:56:43;9.80;58.90
21807;DHT22;11065;50.786;7.840;2023-12-20T14:59:12;9.80;58.90
21807;DHT22;11065;50.786;7.840;2023-12-20T15:01:40;9.80;58.90
21807;DHT22;11065;50.786;7.840;2023-12-20T15:04:10;9.80;59.00
21807;DHT22;11065;50.786;7.840;2023-12-20T15:06:39;9.80;59.00
21807;DHT22;11065;50.786;7.840;2023-12-20T15:09:07;9.80;59.00
21807;DHT22;11065;50.786;7.840;2023-12-20T15:11:35;9.80;59.20
21807;DHT22;11065;50.786;7.840;2023-12-20T15:14:03;9.70;59.30
21807;DHT22;11065;50.786;7.840;2023-12-20T15:16:33;9.70;59.30
21807;DHT22;11065;50.786;7.840;2023-12-20T15:19:01;9.70;59.20
21807;DHT22;11065;50.786;7.840;2023-12-20T15:21:30;9.70;59.40
21807;DHT22;11065;50.786;7.840;2023-12-20T15:24:01;9.70;59.30
21807;DHT22;11065;50.786;7.840;2023-12-20T15:26:39;9.60;59.30
21807;DHT22;11065;50.786;7.840;2023-12-20T15:29:08;9.60;59.30
21807;DHT22;11065;50.786;7.840;2023-12-20T15:31:42;9.70;59.40
21807;DHT22;11065;50.786;7.840;2023-12-20T15:34:11;9.70;59.40
21807;DHT22;11065;50.786;7.840;2023-12-20T15:36:40;9.70;59.30
21807;DHT22;11065;50.786;7.840;2023-12-20T15:39:08;9.60;59.50
21807;DHT22;11065;50.786;7.840;2023-12-20T15:41:36;9.60;59.40
21807;DHT22;11065;50.786;7.840;2023-12-20T15:44:04;9.60;59.40
21807;DHT22;11065;50.786;7.840;2023-12-20T15:46:32;9.60;59.40
21807;DHT22;11065;50.786;7.840;2023-12-20T15:49:01;9.60;59.40
21807;DHT22;11065;50.786;7.840;2023-12-20T15:51:30;9.60;59.40
21807;DHT22;11065;50.786;7.840;2023-12-20T15:53:58;9.60;59.50